sensor_id;sensor_type;location;lat;lon;timestamp;temperature;humidity
909;DHT22;441;51.192;6.788;2023-06-10T00:01:28;24.90;66.80
909;DHT22;441;51.192;6.788;2023-06-10T00:03:55;24.90;66.40
909;DHT22;441;51.192;6.788;2023-06-10T00:06:22;24.90;66.40
909;DHT22;441;51.192;6.788;2023-06-10T00:08:49;24.90;66.30
909;DHT22;441;51.192;6.788;2023-06-10T00:11:16;24.90;66.20
909;DHT22;441;51.192;6.788;2023-06-10T00:13:45;24.80;66.10
909;DHT22;441;51.192;6.788;2023-06-10T00:16:11;24.90;66.60
909;DHT22;441;51.192;6.788;2023-06-10T00:18:38;24.80;66.50
909;DHT22;441;51.192;6.788;2023-06-10T00:21:05;24.90;66.50
909;DHT22;441;51.192;6.788;2023-06-10T00:23:32;24.90;66.70
909;DHT22;441;51.192;6.788;2023-06-10T00:26:03;24.80;66.70
909;DHT22;441;51.192;6.788;2023-06-10T00:28:30;24.80;66.60
909;DHT22;441;51.192;6.788;2023-06-10T00:30:58;24.70;66.70
909;DHT22;441;51.192;6.788;2023-06-10T00:33:25;24.70;66.60
909;DHT22;441;51.192;6.788;2023-06-10T00:35:52;24.60;67.00
909;DHT22;441;51.192;6.788;2023-06-10T00:38:19;24.40;67.00
909;DHT22;441;51.192;6.788;2023-06-10T00:40:46;24.50;67.80
909;DHT22;441;51.192;6.788;2023-06-10T00:43:13;24.40;68.40
909;DHT22;441;51.192;6.788;2023-06-10T00:45:40;24.50;68.60
909;DHT22;441;51.192;6.788;2023-06-10T00:48:08;24.50;68.90
909;DHT22;441;51.192;6.788;2023-06-10T00:50:36;24.50;68.90
909;DHT22;441;51.192;6.788;2023-06-10T00:53:05;24.50;68.80
909;DHT22;441;51.192;6.788;2023-06-10T00:55:32;24.60;68.70
909;DHT22;441;51.192;6.788;2023-06-10T00:58:00;24.50;68.70
909;DHT22;441;51.192;6.788;2023-06-10T01:00:27;24.50;69.10
909;DHT22;441;51.192;6.788;2023-06-10T01:02:54;24.50;69.00
909;DHT22;441;51.192;6.788;2023-06-10T01:05:23;24.50;69.20
909;DHT22;441;51.192;6.788;2023-06-10T01:07:54;24.50;69.40
909;DHT22;441;51.192;6.788;2023-06-10T01:10:27;24.40;69.60
909;DHT22;441;51.192;6.788;2023-06-10T01:12:59;24.40;69.90
909;DHT22;441;51.192;6.788;2023-06-10T01:15:29;24.40;69.70
909;DHT22;441;51.192;6.788;2023-06-10T01:17:57;24.40;70.10
909;DHT22;441;51.192;6.788;2023-06-10T01:20:26;24.40;70.10
909;DHT22;441;51.192;6.788;2023-06-10T01:22:55;24.40;70.30
909;DHT22;441;51.192;6.788;2023-06-10T01:25:24;24.30;70.40
909;DHT22;441;51.192;6.788;2023-06-10T01:27:55;24.20;70.50
909;DHT22;441;51.192;6.788;2023-06-10T01:30:28;24.10;69.90
909;DHT22;441;51.192;6.788;2023-06-10T01:32:59;24.10;70.40
909;DHT22;441;51.192;6.788;2023-06-10T01:35:30;24.10;70.60
909;DHT22;441;51.192;6.788;2023-06-10T01:37:58;24.10;71.10
909;DHT22;441;51.192;6.788;2023-06-10T01:40:28;24.00;71.80
909;DHT22;441;51.192;6.788;2023-06-10T01:42:56;24.00;72.10
909;DHT22;441;51.192;6.788;2023-06-10T01:45:23;24.00;72.00
909;DHT22;441;51.192;6.788;2023-06-10T01:47:50;24.00;72.10
909;DHT22;441;51.192;6.788;2023-06-10T01:50:16;24.00;71.90
909;DHT22;441;51.192;6.788;2023-06-10T01:52:43;23.90;72.40
909;DHT22;441;51.192;6.788;2023-06-10T01:55:12;23.90;72.80
909;DHT22;441;51.192;6.788;2023-06-10T01:57:39;23.90;73.00
909;DHT22;441;51.192;6.788;2023-06-10T02:00:07;23.80;73.60
909;DHT22;441;51.192;6.788;2023-06-10T02:02:34;23.70;73.70
909;DHT22;441;51.192;6.788;2023-06-10T02:05:01;23.70;74.20
909;DHT22;441;51.192;6.788;2023-06-10T02:07:28;23.70;74.70
909;DHT22;441;51.192;6.788;2023-06-10T02:09:55;23.70;74.50
909;DHT22;441;51.192;6.788;2023-06-10T02:12:23;23.70;74.60
909;DHT22;441;51.192;6.788;2023-06-10T02:14:50;23.70;74.00
909;DHT22;441;51.192;6.788;2023-06-10T02:17:17;23.80;73.60
909;DHT22;441;51.192;6.788;2023-06-10T02:19:45;23.70;73.30
909;DHT22;441;51.192;6.788;2023-06-10T02:22:20;23.70;72.90
909;DHT22;441;51.192;6.788;2023-06-10T02:24:47;23.70;73.00
909;DHT22;441;51.192;6.788;2023-06-10T02:27:14;23.60;72.50
909;DHT22;441;51.192;6.788;2023-06-10T02:29:42;23.60;72.70
909;DHT22;441;51.192;6.788;2023-06-10T02:32:10;23.60;72.80
909;DHT22;441;51.192;6.788;2023-06-10T02:34:36;23.60;72.90
909;DHT22;441;51.192;6.788;2023-06-10T02:37:04;23.50;73.20
909;DHT22;441;51.192;6.788;2023-06-10T02:39:31;23.50;73.00
909;DHT22;441;51.192;6.788;2023-06-10T02:41:57;23.60;73.50
909;DHT22;441;51.192;6.788;2023-06-10T02:44:24;23.60;73.30
909;DHT22;441;51.192;6.788;2023-06-10T02:46:52;23.70;73.00
909;DHT22;441;51.192;6.788;2023-06-10T02:49:21;23.70;72.80
909;DHT22;441;51.192;6.788;2023-06-10T02:51:50;23.80;73.10
909;DHT22;441;51.192;6.788;2023-06-10T02:54:23;23.80;72.80
909;DHT22;441;51.192;6.788;2023-06-10T02:56:55;23.80;72.80
909;DHT22;441;51.192;6.788;2023-06-10T02:59:42;23.80;72.60
909;DHT22;441;51.192;6.788;2023-06-10T03:02:11;23.90;72.60
909;DHT22;441;51.192;6.788;2023-06-10T03:04:38;23.90;72.40
909;DHT22;441;51.192;6.788;2023-06-10T03:07:05;23.90;72.20
909;DHT22;441;51.192;6.788;2023-06-10T03:09:32;24.00;72.20
909;DHT22;441;51.192;6.788;2023-06-10T03:11:59;24.00;72.10
909;DHT22;441;51.192;6.788;2023-06-10T03:14:27;24.00;71.90
909;DHT22;441;51.192;6.788;2023-06-10T03:16:54;24.00;71.80
909;DHT22;441;51.192;6.788;2023-06-10T03:19:22;24.10;71.70
909;DHT22;441;51.192;6.788;2023-06-10T03:21:57;24.10;71.50
909;DHT22;441;51.192;6.788;2023-06-10T03:24:26;24.10;71.30
909;DHT22;441;51.192;6.788;2023-06-10T03:26:53;24.10;70.90
909;DHT22;441;51.192;6.788;2023-06-10T03:29:20;24.10;71.30
909;DHT22;441;51.192;6.788;2023-06-10T03:31:47;24.10;73.20
909;DHT22;441;51.192;6.788;2023-06-10T03:34:14;24.10;73.90
909;DHT22;441;51.192;6.788;2023-06-10T03:36:42;24.10;74.40
909;DHT22;441;51.192;6.788;2023-06-10T03:39:10;24.10;73.90
909;DHT22;441;51.192;6.788;2023-06-10T03:41:37;24.20;73.70
909;DHT22;441;51.192;6.788;2023-06-10T03:44:04;24.20;73.50
909;DHT22;441;51.192;6.788;2023-06-10T03:46:31;24.20;72.80
909;DHT22;441;51.192;6.788;2023-06-10T03:48:58;24.30;72.20
909;DHT22;441;51.192;6.788;2023-06-10T03:51:26;24.30;71.90
909;DHT22;441;51.192;6.788;2023-06-10T03:53:54;24.30;71.70
909;DHT22;441;51.192;6.788;2023-06-10T03:56:21;24.30;71.30
909;DHT22;441;51.192;6.788;2023-06-10T03:58:48;24.30;71.00
909;DHT22;441;51.192;6.788;2023-06-10T04:01:15;24.40;70.80
909;DHT22;441;51.192;6.788;2023-06-10T04:03:43;24.40;70.60
909;DHT22;441;51.192;6.788;2023-06-10T04:06:10;24.40;70.30
909;DHT22;441;51.192;6.788;2023-06-10T04:08:37;24.40;70.30
909;DHT22;441;51.192;6.788;2023-06-10T04:11:06;24.40;70.20
909;DHT22;441;51.192;6.788;2023-06-10T04:13:33;24.40;70.00
909;DHT22;441;51.192;6.788;2023-06-10T04:15:59;24.40;69.90
909;DHT22;441;51.192;6.788;2023-06-10T04:18:26;24.50;69.90
909;DHT22;441;51.192;6.788;2023-06-10T04:20:54;24.50;69.70
909;DHT22;441;51.192;6.788;2023-06-10T04:23:21;24.50;69.60
909;DHT22;441;51.192;6.788;2023-06-10T04:25:47;24.50;69.60
909;DHT22;441;51.192;6.788;2023-06-10T04:28:16;24.50;69.50
909;DHT22;441;51.192;6.788;2023-06-10T04:30:43;24.50;69.50
909;DHT22;441;51.192;6.788;2023-06-10T04:33:10;24.50;69.30
909;DHT22;441;51.192;6.788;2023-06-10T04:35:37;24.50;69.20
909;DHT22;441;51.192;6.788;2023-06-10T04:38:04;24.50;69.20
909;DHT22;441;51.192;6.788;2023-06-10T04:40:31;24.50;69.10
909;DHT22;441;51.192;6.788;2023-06-10T04:42:57;24.60;69.40
909;DHT22;441;51.192;6.788;2023-06-10T04:45:26;24.50;70.60
909;DHT22;441;51.192;6.788;2023-06-10T04:47:54;24.60;71.70
909;DHT22;441;51.192;6.788;2023-06-10T04:50:21;24.60;72.00
909;DHT22;441;51.192;6.788;2023-06-10T04:52:48;24.70;72.10
909;DHT22;441;51.192;6.788;2023-06-10T04:55:16;24.70;72.10
909;DHT22;441;51.192;6.788;2023-06-10T04:57:42;24.70;71.70
909;DHT22;441;51.192;6.788;2023-06-10T05:00:10;24.70;71.80
909;DHT22;441;51.192;6.788;2023-06-10T05:02:39;24.80;71.70
909;DHT22;441;51.192;6.788;2023-06-10T05:05:06;24.90;72.20
909;DHT22;441;51.192;6.788;2023-06-10T05:07:33;25.00;72.00
909;DHT22;441;51.192;6.788;2023-06-10T05:10:00;25.10;72.00
909;DHT22;441;51.192;6.788;2023-06-10T05:12:28;25.20;71.50
909;DHT22;441;51.192;6.788;2023-06-10T05:14:55;25.20;71.50
909;DHT22;441;51.192;6.788;2023-06-10T05:17:22;25.20;71.60
909;DHT22;441;51.192;6.788;2023-06-10T05:19:52;25.30;71.50
909;DHT22;441;51.192;6.788;2023-06-10T05:22:19;25.20;71.20
909;DHT22;441;51.192;6.788;2023-06-10T05:24:45;25.40;72.70
909;DHT22;441;51.192;6.788;2023-06-10T05:27:12;25.40;72.40
909;DHT22;441;51.192;6.788;2023-06-10T05:29:40;25.50;71.80
909;DHT22;441;51.192;6.788;2023-06-10T05:32:08;25.50;71.90
909;DHT22;441;51.192;6.788;2023-06-10T05:34:35;25.50;71.60
909;DHT22;441;51.192;6.788;2023-06-10T05:37:03;25.70;71.60
909;DHT22;441;51.192;6.788;2023-06-10T05:39:30;25.70;71.20
909;DHT22;441;51.192;6.788;2023-06-10T05:41:57;25.70;69.30
909;DHT22;441;51.192;6.788;2023-06-10T05:44:26;25.80;69.60
909;DHT22;441;51.192;6.788;2023-06-10T05:46:53;25.80;69.10
909;DHT22;441;51.192;6.788;2023-06-10T05:49:20;25.80;68.30
909;DHT22;441;51.192;6.788;2023-06-10T05:51:47;25.80;67.70
909;DHT22;441;51.192;6.788;2023-06-10T05:54:15;25.90;66.70
909;DHT22;441;51.192;6.788;2023-06-10T05:56:42;25.90;66.20
909;DHT22;441;51.192;6.788;2023-06-10T05:59:09;25.90;65.40
909;DHT22;441;51.192;6.788;2023-06-10T06:01:36;25.90;65.20
909;DHT22;441;51.192;6.788;2023-06-10T06:04:03;26.00;64.50
909;DHT22;441;51.192;6.788;2023-06-10T06:06:30;26.00;64.50
909;DHT22;441;51.192;6.788;2023-06-10T06:08:57;26.10;64.50
909;DHT22;441;51.192;6.788;2023-06-10T06:11:25;26.00;64.50
909;DHT22;441;51.192;6.788;2023-06-10T06:13:52;26.00;65.20
909;DHT22;441;51.192;6.788;2023-06-10T06:16:19;26.00;64.20
909;DHT22;441;51.192;6.788;2023-06-10T06:18:46;26.00;63.90
909;DHT22;441;51.192;6.788;2023-06-10T06:21:13;25.90;63.00
909;DHT22;441;51.192;6.788;2023-06-10T06:23:40;26.00;63.60
909;DHT22;441;51.192;6.788;2023-06-10T06:26:06;26.10;62.50
909;DHT22;441;51.192;6.788;2023-06-10T06:28:35;26.10;63.70
909;DHT22;441;51.192;6.788;2023-06-10T06:31:02;26.20;63.70
909;DHT22;441;51.192;6.788;2023-06-10T06:33:29;26.20;63.20
909;DHT22;441;51.192;6.788;2023-06-10T06:35:56;26.20;63.80
909;DHT22;441;51.192;6.788;2023-06-10T06:38:23;26.30;64.30
909;DHT22;441;51.192;6.788;2023-06-10T06:40:50;26.30;63.50
909;DHT22;441;51.192;6.788;2023-06-10T06:43:17;26.30;63.20
909;DHT22;441;51.192;6.788;2023-06-10T06:45:45;26.40;63.40
909;DHT22;441;51.192;6.788;2023-06-10T06:48:12;26.40;63.20
909;DHT22;441;51.192;6.788;2023-06-10T06:50:40;26.50;62.80
909;DHT22;441;51.192;6.788;2023-06-10T06:53:07;26.40;62.50
909;DHT22;441;51.192;6.788;2023-06-10T06:55:34;26.50;62.00
909;DHT22;441;51.192;6.788;2023-06-10T06:58:01;26.60;61.20
909;DHT22;441;51.192;6.788;2023-06-10T07:00:29;26.60;61.00
909;DHT22;441;51.192;6.788;2023-06-10T07:02:57;26.60;60.90
909;DHT22;441;51.192;6.788;2023-06-10T07:05:25;26.60;60.80
909;DHT22;441;51.192;6.788;2023-06-10T07:07:52;26.60;60.40
909;DHT22;441;51.192;6.788;2023-06-10T07:10:20;26.60;60.30
909;DHT22;441;51.192;6.788;2023-06-10T07:12:48;26.70;60.80
909;DHT22;441;51.192;6.788;2023-06-10T07:15:15;26.70;60.00
909;DHT22;441;51.192;6.788;2023-06-10T07:17:42;26.70;60.00
909;DHT22;441;51.192;6.788;2023-06-10T07:20:11;26.70;59.10
909;DHT22;441;51.192;6.788;2023-06-10T07:22:39;26.60;58.50
909;DHT22;441;51.192;6.788;2023-06-10T07:25:07;26.60;59.00
909;DHT22;441;51.192;6.788;2023-06-10T07:27:34;26.60;58.80
909;DHT22;441;51.192;6.788;2023-06-10T07:30:01;26.60;59.40
909;DHT22;441;51.192;6.788;2023-06-10T07:32:28;26.60;58.90
909;DHT22;441;51.192;6.788;2023-06-10T07:34:55;26.70;59.00
909;DHT22;441;51.192;6.788;2023-06-10T07:37:23;26.70;59.20
909;DHT22;441;51.192;6.788;2023-06-10T07:39:50;26.70;59.10
909;DHT22;441;51.192;6.788;2023-06-10T07:42:17;26.70;59.40
909;DHT22;441;51.192;6.788;2023-06-10T07:44:44;26.80;59.40
909;DHT22;441;51.192;6.788;2023-06-10T07:47:11;26.70;58.90
909;DHT22;441;51.192;6.788;2023-06-10T07:49:38;26.70;59.00
909;DHT22;441;51.192;6.788;2023-06-10T07:52:06;26.80;58.90
909;DHT22;441;51.192;6.788;2023-06-10T07:54:34;26.70;58.30
909;DHT22;441;51.192;6.788;2023-06-10T07:57:01;26.70;58.40
909;DHT22;441;51.192;6.788;2023-06-10T07:59:28;26.80;58.30
909;DHT22;441;51.192;6.788;2023-06-10T08:01:55;26.80;58.20
909;DHT22;441;51.192;6.788;2023-06-10T08:04:22;26.80;58.30
909;DHT22;441;51.192;6.788;2023-06-10T08:06:48;26.80;58.20
909;DHT22;441;51.192;6.788;2023-06-10T08:09:16;26.70;58.60
909;DHT22;441;51.192;6.788;2023-06-10T08:11:46;26.70;58.30
909;DHT22;441;51.192;6.788;2023-06-10T08:14:13;26.70;58.70
909;DHT22;441;51.192;6.788;2023-06-10T08:16:40;26.70;58.80
909;DHT22;441;51.192;6.788;2023-06-10T08:19:07;26.70;59.40
909;DHT22;441;51.192;6.788;2023-06-10T08:21:34;26.70;59.90
909;DHT22;441;51.192;6.788;2023-06-10T08:24:02;26.80;59.70
909;DHT22;441;51.192;6.788;2023-06-10T08:26:29;26.80;59.40
909;DHT22;441;51.192;6.788;2023-06-10T08:28:57;26.80;59.30
909;DHT22;441;51.192;6.788;2023-06-10T08:31:24;26.80;58.80
909;DHT22;441;51.192;6.788;2023-06-10T08:33:51;26.80;58.50
909;DHT22;441;51.192;6.788;2023-06-10T08:36:18;26.80;58.50
909;DHT22;441;51.192;6.788;2023-06-10T08:38:45;26.80;58.60
909;DHT22;441;51.192;6.788;2023-06-10T08:41:14;26.80;59.30
909;DHT22;441;51.192;6.788;2023-06-10T08:43:46;26.80;59.00
909;DHT22;441;51.192;6.788;2023-06-10T08:46:16;26.80;58.80
909;DHT22;441;51.192;6.788;2023-06-10T08:48:43;26.80;58.40
909;DHT22;441;51.192;6.788;2023-06-10T08:51:11;26.80;58.50
909;DHT22;441;51.192;6.788;2023-06-10T08:53:41;26.80;58.20
909;DHT22;441;51.192;6.788;2023-06-10T08:56:11;26.80;58.70
909;DHT22;441;51.192;6.788;2023-06-10T08:58:39;26.80;58.50
909;DHT22;441;51.192;6.788;2023-06-10T09:01:07;26.80;58.30
909;DHT22;441;51.192;6.788;2023-06-10T09:03:37;26.80;59.00
909;DHT22;441;51.192;6.788;2023-06-10T09:06:05;26.90;60.30
909;DHT22;441;51.192;6.788;2023-06-10T09:08:33;27.00;61.80
909;DHT22;441;51.192;6.788;2023-06-10T09:11:01;27.00;64.30
909;DHT22;441;51.192;6.788;2023-06-10T09:13:28;27.00;61.90
909;DHT22;441;51.192;6.788;2023-06-10T09:15:55;27.00;61.60
909;DHT22;441;51.192;6.788;2023-06-10T09:18:26;27.10;61.00
909;DHT22;441;51.192;6.788;2023-06-10T09:20:55;27.10;62.80
909;DHT22;441;51.192;6.788;2023-06-10T09:23:21;27.10;63.00
909;DHT22;441;51.192;6.788;2023-06-10T09:25:56;27.10;62.50
909;DHT22;441;51.192;6.788;2023-06-10T09:28:23;27.10;63.20
909;DHT22;441;51.192;6.788;2023-06-10T09:31:02;27.10;62.10
909;DHT22;441;51.192;6.788;2023-06-10T09:33:29;27.10;61.30
909;DHT22;441;51.192;6.788;2023-06-10T09:35:57;27.10;60.90
909;DHT22;441;51.192;6.788;2023-06-10T09:38:30;27.20;61.90
909;DHT22;441;51.192;6.788;2023-06-10T09:40:57;27.20;62.50
909;DHT22;441;51.192;6.788;2023-06-10T09:43:39;27.20;61.70
909;DHT22;441;51.192;6.788;2023-06-10T09:46:06;27.20;61.20
909;DHT22;441;51.192;6.788;2023-06-10T09:48:35;27.30;61.50
909;DHT22;441;51.192;6.788;2023-06-10T09:51:08;27.30;61.30
909;DHT22;441;51.192;6.788;2023-06-10T09:53:35;27.30;60.60
909;DHT22;441;51.192;6.788;2023-06-10T09:56:03;27.30;61.80
909;DHT22;441;51.192;6.788;2023-06-10T09:58:36;27.30;61.50
909;DHT22;441;51.192;6.788;2023-06-10T10:01:09;27.30;60.70
909;DHT22;441;51.192;6.788;2023-06-10T10:03:43;27.40;60.70
909;DHT22;441;51.192;6.788;2023-06-10T10:06:13;27.40;61.80
909;DHT22;441;51.192;6.788;2023-06-10T10:08:41;27.40;61.30
909;DHT22;441;51.192;6.788;2023-06-10T10:11:09;27.40;61.50
909;DHT22;441;51.192;6.788;2023-06-10T10:13:37;27.40;61.90
909;DHT22;441;51.192;6.788;2023-06-10T10:16:08;27.40;61.80
909;DHT22;441;51.192;6.788;2023-06-10T10:18:39;27.50;61.50
909;DHT22;441;51.192;6.788;2023-06-10T10:21:13;27.50;63.20
909;DHT22;441;51.192;6.788;2023-06-10T10:23:44;27.50;63.50
909;DHT22;441;51.192;6.788;2023-06-10T10:26:13;27.60;62.60
909;DHT22;441;51.192;6.788;2023-06-10T10:28:45;27.60;62.40
909;DHT22;441;51.192;6.788;2023-06-10T10:31:16;27.60;61.10
909;DHT22;441;51.192;6.788;2023-06-10T10:33:51;27.50;61.10
909;DHT22;441;51.192;6.788;2023-06-10T10:36:23;27.50;60.80
909;DHT22;441;51.192;6.788;2023-06-10T10:38:50;27.40;60.80
909;DHT22;441;51.192;6.788;2023-06-10T10:41:18;27.40;60.80
909;DHT22;441;51.192;6.788;2023-06-10T10:43:47;27.30;60.70
909;DHT22;441;51.192;6.788;2023-06-10T10:46:16;27.30;60.70
909;DHT22;441;51.192;6.788;2023-06-10T10:48:43;27.30;60.80
909;DHT22;441;51.192;6.788;2023-06-10T10:51:11;27.30;60.80
909;DHT22;441;51.192;6.788;2023-06-10T10:53:39;27.30;60.70
909;DHT22;441;51.192;6.788;2023-06-10T10:56:13;27.20;60.90
909;DHT22;441;51.192;6.788;2023-06-10T10:58:41;27.20;60.70
909;DHT22;441;51.192;6.788;2023-06-10T11:01:11;27.10;60.90
909;DHT22;441;51.192;6.788;2023-06-10T11:03:43;27.10;60.90
909;DHT22;441;51.192;6.788;2023-06-10T11:06:13;27.10;60.90
909;DHT22;441;51.192;6.788;2023-06-10T11:08:49;27.00;60.90
909;DHT22;441;51.192;6.788;2023-06-10T11:11:21;27.00;60.90
909;DHT22;441;51.192;6.788;2023-06-10T11:14:09;27.10;62.00
909;DHT22;441;51.192;6.788;2023-06-10T11:16:40;27.10;62.50
909;DHT22;441;51.192;6.788;2023-06-10T11:19:08;27.20;60.70
909;DHT22;441;51.192;6.788;2023-06-10T11:21:57;27.20;61.60
909;DHT22;441;51.192;6.788;2023-06-10T11:24:28;27.20;59.60
909;DHT22;441;51.192;6.788;2023-06-10T11:26:55;27.30;60.30
909;DHT22;441;51.192;6.788;2023-06-10T11:29:55;27.30;58.90
909;DHT22;441;51.192;6.788;2023-06-10T11:32:22;27.30;59.30
909;DHT22;441;51.192;6.788;2023-06-10T11:34:53;27.40;58.50
909;DHT22;441;51.192;6.788;2023-06-10T11:37:20;27.40;57.90
909;DHT22;441;51.192;6.788;2023-06-10T11:39:51;27.50;58.00
909;DHT22;441;51.192;6.788;2023-06-10T11:42:19;27.50;57.80
909;DHT22;441;51.192;6.788;2023-06-10T11:44:50;27.50;57.80
909;DHT22;441;51.192;6.788;2023-06-10T11:47:17;27.50;57.00
909;DHT22;441;51.192;6.788;2023-06-10T11:49:44;27.50;57.90
909;DHT22;441;51.192;6.788;2023-06-10T11:52:13;27.50;57.40
909;DHT22;441;51.192;6.788;2023-06-10T11:54:40;27.60;57.20
909;DHT22;441;51.192;6.788;2023-06-10T11:57:08;27.60;57.20
909;DHT22;441;51.192;6.788;2023-06-10T11:59:35;27.60;57.20
909;DHT22;441;51.192;6.788;2023-06-10T12:02:02;27.70;57.50
909;DHT22;441;51.192;6.788;2023-06-10T12:04:29;27.60;57.50
909;DHT22;441;51.192;6.788;2023-06-10T12:06:56;27.70;57.70
909;DHT22;441;51.192;6.788;2023-06-10T12:09:24;27.70;58.10
909;DHT22;441;51.192;6.788;2023-06-10T12:11:54;27.80;58.30
909;DHT22;441;51.192;6.788;2023-06-10T12:14:54;27.80;57.80
909;DHT22;441;51.192;6.788;2023-06-10T12:17:22;27.80;57.60
909;DHT22;441;51.192;6.788;2023-06-10T12:19:50;27.80;57.10
909;DHT22;441;51.192;6.788;2023-06-10T12:22:17;27.80;56.80
909;DHT22;441;51.192;6.788;2023-06-10T12:24:45;27.80;57.10
909;DHT22;441;51.192;6.788;2023-06-10T12:27:12;27.80;56.50
909;DHT22;441;51.192;6.788;2023-06-10T12:29:39;27.90;56.10
909;DHT22;441;51.192;6.788;2023-06-10T12:32:18;27.90;55.50
909;DHT22;441;51.192;6.788;2023-06-10T12:34:45;27.90;55.30
909;DHT22;441;51.192;6.788;2023-06-10T12:37:13;27.90;56.60
909;DHT22;441;51.192;6.788;2023-06-10T12:39:40;27.90;57.90
909;DHT22;441;51.192;6.788;2023-06-10T12:42:09;27.90;59.00
909;DHT22;441;51.192;6.788;2023-06-10T12:44:39;27.90;59.20
909;DHT22;441;51.192;6.788;2023-06-10T12:47:10;27.90;58.80
909;DHT22;441;51.192;6.788;2023-06-10T12:49:39;27.90;58.50
909;DHT22;441;51.192;6.788;2023-06-10T12:52:06;28.00;59.20
909;DHT22;441;51.192;6.788;2023-06-10T12:54:34;28.00;58.50
909;DHT22;441;51.192;6.788;2023-06-10T12:57:01;28.00;57.20
909;DHT22;441;51.192;6.788;2023-06-10T12:59:29;28.00;56.80
909;DHT22;441;51.192;6.788;2023-06-10T13:01:58;28.10;57.10
909;DHT22;441;51.192;6.788;2023-06-10T13:04:25;28.00;57.20
909;DHT22;441;51.192;6.788;2023-06-10T13:06:53;28.00;57.30
909;DHT22;441;51.192;6.788;2023-06-10T13:09:21;27.90;57.40
909;DHT22;441;51.192;6.788;2023-06-10T13:11:48;28.00;57.50
909;DHT22;441;51.192;6.788;2023-06-10T13:14:15;27.90;57.60
909;DHT22;441;51.192;6.788;2023-06-10T13:16:42;27.90;57.70
909;DHT22;441;51.192;6.788;2023-06-10T13:19:10;27.80;57.90
909;DHT22;441;51.192;6.788;2023-06-10T13:21:37;27.80;57.90
909;DHT22;441;51.192;6.788;2023-06-10T13:24:06;27.80;58.00
909;DHT22;441;51.192;6.788;2023-06-10T13:26:32;27.80;58.20
909;DHT22;441;51.192;6.788;2023-06-10T13:28:59;27.80;58.20
909;DHT22;441;51.192;6.788;2023-06-10T13:31:26;27.80;58.20
909;DHT22;441;51.192;6.788;2023-06-10T13:33:53;27.80;58.10
909;DHT22;441;51.192;6.788;2023-06-10T13:36:20;27.70;58.20
909;DHT22;441;51.192;6.788;2023-06-10T13:38:47;27.70;58.00
909;DHT22;441;51.192;6.788;2023-06-10T13:41:15;27.70;58.20
909;DHT22;441;51.192;6.788;2023-06-10T13:43:42;27.60;58.00
909;DHT22;441;51.192;6.788;2023-06-10T13:46:09;27.60;58.20
909;DHT22;441;51.192;6.788;2023-06-10T13:48:36;27.60;58.30
909;DHT22;441;51.192;6.788;2023-06-10T13:51:03;27.50;58.30
909;DHT22;441;51.192;6.788;2023-06-10T13:53:30;27.60;58.50
909;DHT22;441;51.192;6.788;2023-06-10T13:55:57;27.50;58.40
909;DHT22;441;51.192;6.788;2023-06-10T13:58:26;27.50;58.50
909;DHT22;441;51.192;6.788;2023-06-10T14:00:53;27.50;58.50
909;DHT22;441;51.192;6.788;2023-06-10T14:03:20;27.50;58.60
909;DHT22;441;51.192;6.788;2023-06-10T14:05:47;27.50;58.60
909;DHT22;441;51.192;6.788;2023-06-10T14:08:14;27.50;58.70
909;DHT22;441;51.192;6.788;2023-06-10T14:10:40;27.50;58.60
909;DHT22;441;51.192;6.788;2023-06-10T14:13:07;27.50;58.70
909;DHT22;441;51.192;6.788;2023-06-10T14:15:36;27.50;58.70
909;DHT22;441;51.192;6.788;2023-06-10T14:18:03;27.50;58.80
909;DHT22;441;51.192;6.788;2023-06-10T14:20:30;27.50;58.80
909;DHT22;441;51.192;6.788;2023-06-10T14:22:57;27.50;58.70
909;DHT22;441;51.192;6.788;2023-06-10T14:25:25;27.50;58.80
909;DHT22;441;51.192;6.788;2023-06-10T14:27:52;27.50;58.80
909;DHT22;441;51.192;6.788;2023-06-10T14:30:18;27.50;58.80
909;DHT22;441;51.192;6.788;2023-06-10T14:32:47;27.50;58.80
909;DHT22;441;51.192;6.788;2023-06-10T14:35:14;27.40;58.70
909;DHT22;441;51.192;6.788;2023-06-10T14:37:40;27.40;58.70
909;DHT22;441;51.192;6.788;2023-06-10T14:40:08;27.50;58.90
909;DHT22;441;51.192;6.788;2023-06-10T14:42:35;27.50;58.90
909;DHT22;441;51.192;6.788;2023-06-10T14:45:03;27.50;58.90
909;DHT22;441;51.192;6.788;2023-06-10T14:47:30;27.50;59.00
909;DHT22;441;51.192;6.788;2023-06-10T14:49:58;27.50;59.00
909;DHT22;441;51.192;6.788;2023-06-10T14:52:26;27.50;59.00
909;DHT22;441;51.192;6.788;2023-06-10T14:54:53;27.50;59.00
909;DHT22;441;51.192;6.788;2023-06-10T14:57:20;27.50;58.90
909;DHT22;441;51.192;6.788;2023-06-10T14:59:47;27.50;59.00
909;DHT22;441;51.192;6.788;2023-06-10T15:02:14;27.50;59.00
909;DHT22;441;51.192;6.788;2023-06-10T15:04:40;27.50;58.90
909;DHT22;441;51.192;6.788;2023-06-10T15:07:09;27.50;59.10
909;DHT22;441;51.192;6.788;2023-06-10T15:09:36;27.50;58.90
909;DHT22;441;51.192;6.788;2023-06-10T15:12:03;27.50;58.90
909;DHT22;441;51.192;6.788;2023-06-10T15:14:31;27.60;59.00
909;DHT22;441;51.192;6.788;2023-06-10T15:16:58;27.60;59.50
909;DHT22;441;51.192;6.788;2023-06-10T15:19:25;27.60;58.80
909;DHT22;441;51.192;6.788;2023-06-10T15:21:52;27.60;58.80
909;DHT22;441;51.192;6.788;2023-06-10T15:24:21;27.60;58.80
909;DHT22;441;51.192;6.788;2023-06-10T15:26:47;27.60;58.80
909;DHT22;441;51.192;6.788;2023-06-10T15:29:14;27.60;58.70
909;DHT22;441;51.192;6.788;2023-06-10T15:31:41;27.60;58.60
909;DHT22;441;51.192;6.788;2023-06-10T15:34:08;27.70;58.60
909;DHT22;441;51.192;6.788;2023-06-10T15:36:35;27.70;58.60
909;DHT22;441;51.192;6.788;2023-06-10T15:39:04;27.70;58.60
909;DHT22;441;51.192;6.788;2023-06-10T15:41:34;27.70;58.60
909;DHT22;441;51.192;6.788;2023-06-10T15:44:01;27.80;58.60
909;DHT22;441;51.192;6.788;2023-06-10T15:46:28;27.70;58.40
909;DHT22;441;51.192;6.788;2023-06-10T15:48:55;27.70;58.30
909;DHT22;441;51.192;6.788;2023-06-10T15:51:23;27.70;58.30
909;DHT22;441;51.192;6.788;2023-06-10T15:53:50;27.70;58.50
909;DHT22;441;51.192;6.788;2023-06-10T15:56:17;27.70;58.30
909;DHT22;441;51.192;6.788;2023-06-10T15:58:45;27.70;58.20
909;DHT22;441;51.192;6.788;2023-06-10T16:01:12;27.70;58.10
909;DHT22;441;51.192;6.788;2023-06-10T16:03:39;27.70;58.20
909;DHT22;441;51.192;6.788;2023-06-10T16:06:07;27.70;58.10
909;DHT22;441;51.192;6.788;2023-06-10T16:08:34;27.70;58.10
909;DHT22;441;51.192;6.788;2023-06-10T16:11:01;27.70;58.00
909;DHT22;441;51.192;6.788;2023-06-10T16:13:29;27.70;58.00
909;DHT22;441;51.192;6.788;2023-06-10T16:15:57;27.70;58.00
909;DHT22;441;51.192;6.788;2023-06-10T16:18:24;27.70;57.80
909;DHT22;441;51.192;6.788;2023-06-10T16:20:51;27.70;58.00
909;DHT22;441;51.192;6.788;2023-06-10T16:23:18;27.70;57.80
909;DHT22;441;51.192;6.788;2023-06-10T16:25:45;27.70;57.90
909;DHT22;441;51.192;6.788;2023-06-10T16:28:12;27.70;57.80
909;DHT22;441;51.192;6.788;2023-06-10T16:30:39;27.70;57.80
909;DHT22;441;51.192;6.788;2023-06-10T16:33:07;27.70;57.80
909;DHT22;441;51.192;6.788;2023-06-10T16:35:34;27.70;57.80
909;DHT22;441;51.192;6.788;2023-06-10T16:38:01;27.70;57.80
909;DHT22;441;51.192;6.788;2023-06-10T16:40:29;27.70;57.70